createdAt,value
2018-04-23T00:02:14.993Z,63.90
2018-04-23T00:04:41.719Z,63.70
2018-04-23T00:07:08.593Z,63.70
2018-04-23T00:09:35.356Z,63.60
2018-04-23T00:12:02.945Z,64.00
2018-04-23T00:14:30.417Z,64.10
2018-04-23T00:16:57.167Z,64.10
2018-04-23T00:19:24.306Z,64.00
2018-04-23T00:21:51.186Z,63.80
2018-04-23T00:24:17.991Z,64.10
2018-04-23T00:26:45.099Z,64.90
2018-04-23T00:29:12.097Z,65.80
2018-04-23T00:31:38.848Z,66.40
2018-04-23T00:34:05.737Z,65.70
2018-04-23T00:36:33.300Z,66.70
2018-04-23T00:39:00.717Z,69.10
2018-04-23T00:41:28.279Z,69.10
2018-04-23T00:43:55.208Z,71.60
2018-04-23T00:46:21.902Z,72.40
2018-04-23T00:48:49.593Z,74.90
2018-04-23T00:51:16.427Z,74.80
2018-04-23T00:53:43.286Z,75.70
2018-04-23T00:56:10.199Z,76.20
2018-04-23T00:58:37.808Z,75.90
2018-04-23T01:01:04.544Z,75.80
2018-04-23T01:03:31.457Z,75.20
2018-04-23T01:05:58.376Z,75.30
2018-04-23T01:08:25.934Z,74.60
2018-04-23T01:10:53.451Z,75.70
2018-04-23T01:13:20.257Z,75.20
2018-04-23T01:15:46.988Z,74.20
2018-04-23T01:18:14.437Z,74.50
2018-04-23T01:20:41.963Z,74.30
2018-04-23T01:23:08.669Z,74.20
2018-04-23T01:25:35.693Z,74.00
2018-04-23T01:28:03.327Z,73.50
2018-04-23T01:30:30.208Z,72.90
2018-04-23T01:32:57.180Z,74.10
2018-04-23T01:35:23.891Z,73.50
2018-04-23T01:37:50.715Z,72.70
2018-04-23T01:42:52.578Z,72.70
2018-04-23T01:45:19.513Z,72.70
2018-04-23T01:47:46.345Z,72.90
2018-04-23T01:50:14.154Z,73.20
2018-04-23T01:52:40.907Z,73.20
2018-04-23T01:55:07.832Z,73.30
2018-04-23T01:57:35.442Z,73.50
2018-04-23T02:00:02.297Z,73.40
2018-04-23T02:02:29.073Z,73.30
2018-04-23T02:04:56.852Z,73.70
2018-04-23T02:07:23.762Z,73.60
2018-04-23T02:09:50.687Z,74.20
2018-04-23T02:12:18.574Z,74.10
2018-04-23T02:14:45.307Z,74.00
2018-04-23T02:17:12.958Z,73.70
2018-04-23T02:19:39.803Z,73.70
2018-04-23T02:22:06.688Z,73.90
2018-04-23T02:24:35.212Z,74.00
2018-04-23T02:27:01.959Z,73.90
2018-04-23T02:29:28.671Z,73.50
2018-04-23T02:31:55.562Z,73.40
2018-04-23T02:34:22.278Z,73.20
2018-04-23T02:36:49.388Z,73.20
2018-04-23T02:39:16.770Z,73.60
2018-04-23T02:41:43.622Z,73.60
2018-04-23T02:44:10.585Z,73.80
2018-04-23T02:46:37.470Z,73.60
2018-04-23T02:49:04.219Z,73.70
2018-04-23T02:51:30.938Z,73.70
2018-04-23T02:53:58.443Z,73.60
2018-04-23T02:56:25.203Z,73.60
2018-04-23T02:58:52.062Z,73.60
2018-04-23T03:01:18.782Z,73.30
2018-04-23T03:03:45.612Z,72.90
2018-04-23T03:06:12.719Z,73.20
2018-04-23T03:08:39.449Z,73.50
2018-04-23T03:11:06.947Z,74.10
2018-04-23T03:13:33.729Z,74.00
2018-04-23T03:16:01.284Z,73.20
2018-04-23T03:18:28.148Z,73.20
2018-04-23T03:20:55.779Z,73.90
2018-04-23T03:23:23.294Z,73.60
2018-04-23T03:25:50.075Z,73.40
2018-04-23T03:28:16.912Z,73.20
2018-04-23T03:30:43.819Z,72.60
2018-04-23T03:33:10.755Z,72.50
2018-04-23T03:35:37.659Z,72.30
2018-04-23T03:38:04.494Z,72.60
2018-04-23T03:40:31.329Z,73.60
2018-04-23T03:42:58.033Z,73.00
2018-04-23T03:45:24.788Z,73.10
2018-04-23T03:47:51.593Z,72.80
2018-04-23T03:50:19.075Z,73.60
2018-04-23T03:52:45.882Z,73.60
2018-04-23T03:55:13.674Z,73.80
2018-04-23T03:57:40.467Z,73.90
2018-04-23T04:00:07.932Z,73.90
2018-04-23T04:02:34.777Z,74.00
2018-04-23T04:05:03.213Z,74.50
2018-04-23T04:07:30.083Z,74.50
2018-04-23T04:09:56.785Z,73.90
2018-04-23T04:12:41.815Z,74.10
2018-04-23T04:15:26.645Z,73.50
2018-04-23T04:21:14.560Z,71.50
2018-04-23T04:23:52.850Z,72.10
2018-04-23T04:26:21.955Z,72.10
2018-04-23T04:28:51.009Z,71.00
2018-04-23T04:31:19.319Z,70.90
2018-04-23T04:33:48.404Z,70.60
2018-04-23T04:36:16.794Z,70.60
2018-04-23T04:38:47.134Z,69.80
2018-04-23T04:41:15.523Z,69.60
2018-04-23T04:43:44.054Z,68.90
2018-04-23T04:46:13.149Z,68.70
2018-04-23T04:48:41.854Z,69.20
2018-04-23T04:51:11.110Z,69.30
2018-04-23T04:53:39.582Z,69.30
2018-04-23T04:56:08.101Z,69.20
2018-04-23T04:58:36.450Z,68.30
2018-04-23T05:01:04.913Z,68.30
2018-04-23T05:03:33.398Z,68.10
2018-04-23T05:06:02.003Z,67.10
2018-04-23T05:08:30.874Z,67.60
2018-04-23T05:11:00.536Z,66.80
2018-04-23T05:13:28.925Z,66.80
2018-04-23T05:15:58.373Z,68.40
2018-04-23T05:18:26.688Z,68.40
2018-04-23T05:20:55.185Z,68.90
2018-04-23T05:23:24.780Z,68.20
2018-04-23T05:25:53.883Z,68.40
2018-04-23T05:28:23.246Z,67.90
2018-04-23T05:30:51.554Z,67.70
2018-04-23T05:33:19.925Z,67.50
2018-04-23T05:35:48.210Z,67.20
2018-04-23T05:38:17.310Z,65.20
2018-04-23T05:40:46.390Z,63.30
2018-04-23T05:43:15.709Z,64.40
2018-04-23T05:45:45.956Z,63.60
2018-04-23T05:48:14.275Z,63.60
2018-04-23T05:50:42.619Z,63.50
2018-04-23T05:53:10.910Z,62.50
2018-04-23T05:55:39.386Z,61.90
2018-04-23T05:58:07.825Z,63.00
2018-04-23T06:00:36.940Z,64.20
2018-04-23T06:03:06.401Z,64.20
2018-04-23T06:05:34.704Z,63.90
2018-04-23T06:08:03.808Z,61.10
2018-04-23T06:10:32.118Z,61.10
2018-04-23T06:13:01.392Z,61.50
2018-04-23T06:15:31.432Z,58.60
2018-04-23T06:18:01.678Z,59.60
2018-04-23T06:20:31.452Z,59.40
2018-04-23T06:22:59.746Z,59.40
2018-04-23T06:25:28.193Z,59.80
2018-04-23T06:27:57.488Z,61.20
2018-04-23T06:30:25.802Z,60.60
2018-04-23T06:32:54.222Z,60.20
2018-04-23T06:35:22.598Z,60.20
2018-04-23T06:37:51.641Z,59.00
2018-04-23T06:40:20.009Z,59.10
2018-04-23T06:42:48.308Z,59.80
2018-04-23T06:45:16.691Z,60.50
2018-04-23T06:47:45.177Z,59.90
2018-04-23T06:50:13.616Z,58.00
2018-04-23T06:52:42.092Z,58.60
2018-04-23T06:55:11.259Z,56.20
2018-04-23T06:57:39.579Z,56.20
2018-04-23T07:00:07.919Z,56.10
2018-04-23T07:02:37.139Z,57.10
2018-04-23T07:05:05.439Z,57.20
2018-04-23T07:07:33.755Z,56.10
2018-04-23T07:10:02.070Z,54.90
2018-04-23T07:12:31.167Z,54.70
2018-04-23T07:15:00.214Z,54.20
2018-04-23T07:17:28.508Z,54.20
2018-04-23T07:19:56.831Z,54.80
2018-04-23T07:22:26.345Z,54.50
2018-04-23T07:24:54.678Z,54.90
2018-04-23T07:27:22.994Z,55.90
2018-04-23T07:29:51.579Z,54.00
2018-04-23T07:32:19.913Z,54.50
2018-04-23T07:34:48.233Z,54.80
2018-04-23T07:37:16.563Z,54.70
2018-04-23T07:39:44.905Z,54.50
2018-04-23T07:42:13.335Z,53.60
2018-04-23T07:44:42.612Z,54.50
2018-04-23T07:47:11.060Z,54.40
2018-04-23T07:49:40.690Z,54.90
2018-04-23T07:52:09.009Z,54.80
2018-04-23T07:54:38.094Z,53.40
2018-04-23T07:57:06.422Z,53.30
2018-04-23T07:59:34.816Z,53.30
2018-04-23T08:02:03.287Z,54.40
2018-04-23T08:04:31.964Z,54.00
2018-04-23T08:07:00.295Z,52.50
2018-04-23T08:09:29.455Z,52.00
2018-04-23T08:11:57.770Z,51.90
2018-04-23T08:14:26.093Z,52.20
2018-04-23T08:19:29.172Z,52.70
2018-04-23T08:21:57.469Z,52.60
2018-04-23T08:24:25.803Z,52.00
2018-04-23T08:26:55.227Z,51.90
2018-04-23T08:29:23.512Z,51.00
2018-04-23T08:31:51.906Z,50.90
2018-04-23T08:34:20.483Z,49.70
2018-04-23T08:36:48.882Z,50.10
2018-04-23T08:39:17.279Z,49.50
2018-04-23T08:41:45.604Z,50.00
2018-04-23T08:44:14.028Z,50.00
2018-04-23T08:46:42.435Z,50.40
2018-04-23T08:49:11.519Z,49.10
2018-04-23T08:51:39.836Z,49.10
2018-04-23T08:54:08.120Z,49.20
2018-04-23T08:56:36.431Z,47.90
2018-04-23T08:59:04.888Z,48.50
2018-04-23T09:01:33.343Z,50.50
2018-04-23T09:04:01.646Z,50.10
2018-04-23T09:06:30.026Z,47.50
2018-04-23T09:08:58.481Z,46.40
2018-04-23T09:11:27.622Z,47.80
2018-04-23T09:13:55.931Z,47.80
2018-04-23T09:16:24.337Z,47.10
2018-04-23T09:18:53.526Z,46.90
2018-04-23T09:21:22.584Z,46.40
2018-04-23T09:23:50.930Z,46.40
2018-04-23T09:26:20.199Z,46.80
2018-04-23T09:28:50.692Z,46.40
2018-04-23T09:31:19.129Z,46.30
2018-04-23T09:33:47.563Z,46.50
2018-04-23T09:36:15.865Z,45.90
2018-04-23T09:38:44.966Z,46.40
2018-04-23T09:41:14.158Z,47.50
2018-04-23T09:43:43.194Z,46.80
2018-04-23T09:46:11.654Z,46.90
2018-04-23T09:48:40.111Z,45.30
2018-04-23T09:51:09.235Z,46.10
2018-04-23T09:53:37.700Z,46.10
2018-04-23T09:56:06.037Z,46.20
2018-04-23T09:58:34.520Z,46.80
2018-04-23T10:01:10.235Z,46.10
2018-04-23T10:03:42.606Z,46.00
2018-04-23T10:06:11.017Z,44.90
2018-04-23T10:08:39.323Z,45.20
2018-04-23T10:11:08.434Z,42.90
2018-04-23T10:13:36.725Z,42.10
2018-04-23T10:16:05.122Z,42.50
2018-04-23T10:18:33.396Z,43.60
2018-04-23T10:21:01.966Z,44.10
2018-04-23T10:23:30.449Z,43.90
2018-04-23T10:25:58.756Z,44.40
2018-04-23T10:28:27.095Z,44.70
2018-04-23T10:30:55.551Z,43.80
2018-04-23T10:33:23.862Z,44.70
2018-04-23T10:35:52.138Z,42.90
2018-04-23T10:38:20.431Z,43.70
2018-04-23T10:40:48.746Z,43.90
2018-04-23T10:43:17.275Z,44.70
2018-04-23T10:45:45.731Z,45.40
2018-04-23T10:48:14.995Z,42.50
2018-04-23T10:50:43.307Z,42.60
2018-04-23T10:53:12.396Z,43.50
2018-04-23T10:55:40.869Z,42.90
2018-04-23T10:58:10.095Z,40.80
2018-04-23T11:00:38.441Z,40.80
2018-04-23T11:03:07.686Z,40.60
2018-04-23T11:05:36.035Z,40.50
2018-04-23T11:08:04.472Z,41.00
2018-04-23T11:10:32.996Z,40.80
2018-04-23T11:13:01.942Z,42.40
2018-04-23T11:15:30.601Z,40.50
2018-04-23T11:17:58.994Z,39.90
2018-04-23T11:20:27.278Z,39.70
2018-04-23T11:22:55.605Z,38.30
2018-04-23T11:25:24.012Z,39.20
2018-04-23T11:27:52.396Z,39.80
2018-04-23T11:30:21.342Z,38.50
2018-04-23T11:32:49.632Z,36.80
2018-04-23T11:35:17.922Z,36.60
2018-04-23T11:37:46.341Z,37.90
2018-04-23T11:40:14.861Z,34.40
2018-04-23T11:42:43.268Z,35.50
2018-04-23T11:45:11.699Z,36.30
2018-04-23T11:47:40.038Z,35.20
2018-04-23T11:50:08.375Z,36.50
2018-04-23T11:52:36.754Z,36.90
2018-04-23T11:55:05.820Z,35.90
2018-04-23T11:57:34.362Z,35.90
2018-04-23T12:00:02.791Z,34.80
2018-04-23T12:02:31.239Z,34.90
2018-04-23T12:04:59.622Z,34.70
2018-04-23T12:07:28.021Z,34.00
2018-04-23T12:09:57.821Z,34.40
2018-04-23T12:12:26.495Z,34.40
2018-04-23T12:14:54.821Z,33.50
2018-04-23T12:17:23.872Z,34.60
2018-04-23T12:19:52.217Z,34.60
2018-04-23T12:22:20.530Z,34.90
2018-04-23T12:24:49.235Z,34.70
2018-04-23T12:27:18.519Z,34.60
2018-04-23T12:29:47.188Z,34.60
2018-04-23T12:32:15.530Z,35.10
2018-04-23T12:34:43.894Z,33.50
2018-04-23T12:37:13.032Z,33.50
2018-04-23T12:39:42.769Z,32.40
2018-04-23T12:42:11.143Z,32.40
2018-04-23T12:44:39.486Z,33.10
2018-04-23T12:47:07.791Z,33.40
2018-04-23T12:49:36.080Z,32.10
2018-04-23T12:52:04.467Z,31.40
2018-04-23T12:54:33.713Z,34.10
2018-04-23T12:57:02.252Z,34.20
2018-04-23T12:59:30.526Z,35.40
2018-04-23T13:01:58.970Z,32.40
2018-04-23T13:04:27.330Z,33.00
2018-04-23T13:06:55.640Z,32.00
2018-04-23T13:09:24.878Z,32.40
2018-04-23T13:11:55.215Z,32.90
2018-04-23T13:14:23.567Z,32.90
2018-04-23T13:16:51.993Z,32.20
2018-04-23T13:19:20.338Z,32.80
2018-04-23T13:21:49.608Z,31.30
2018-04-23T13:24:17.932Z,31.20
2018-04-23T13:26:46.261Z,31.60
2018-04-23T13:29:15.377Z,32.60
2018-04-23T13:31:44.517Z,33.10
2018-04-23T13:34:13.058Z,33.00
2018-04-23T13:36:42.143Z,30.20
2018-04-23T13:39:11.334Z,30.80
2018-04-23T13:41:39.658Z,30.80
2018-04-23T13:44:08.073Z,31.20
2018-04-23T13:46:36.537Z,31.20
2018-04-23T13:49:05.121Z,31.60
2018-04-23T13:51:33.530Z,31.60
2018-04-23T13:54:01.897Z,29.60
2018-04-23T13:56:30.211Z,29.90
2018-04-23T13:58:59.328Z,29.10
2018-04-23T14:01:27.714Z,29.10
2018-04-23T14:03:56.062Z,30.60
2018-04-23T14:06:25.199Z,29.70
2018-04-23T14:08:53.548Z,29.70
2018-04-23T14:11:22.647Z,30.00
2018-04-23T14:13:50.954Z,30.00
2018-04-23T14:16:21.215Z,29.30
2018-04-23T14:18:49.516Z,29.30
2018-04-23T14:21:18.602Z,28.90
2018-04-23T14:23:47.722Z,29.40
2018-04-23T14:26:16.116Z,29.30
2018-04-23T14:28:44.398Z,29.60
2018-04-23T14:31:12.698Z,29.90
2018-04-23T14:33:41.156Z,29.80
2018-04-23T14:36:09.529Z,30.80
2018-04-23T14:38:37.868Z,30.80
2018-04-23T14:41:07.132Z,30.50
2018-04-23T14:43:35.438Z,30.50
2018-04-23T14:46:03.803Z,31.00
2018-04-23T14:48:32.124Z,32.20
2018-04-23T14:51:00.678Z,30.90
2018-04-23T14:53:29.889Z,32.60
2018-04-23T14:55:59.193Z,31.40
2018-04-23T14:58:27.524Z,31.40
2018-04-23T15:00:56.049Z,31.00
2018-04-23T15:03:25.228Z,31.70
2018-04-23T15:05:53.638Z,31.70
2018-04-23T15:08:21.965Z,31.10
2018-04-23T15:10:50.302Z,31.90
2018-04-23T15:13:18.800Z,32.20
2018-04-23T15:15:48.364Z,31.80
2018-04-23T15:18:17.467Z,31.60
2018-04-23T15:20:48.912Z,32.20
2018-04-23T15:23:18.654Z,32.90
2018-04-23T15:25:47.231Z,32.90
2018-04-23T15:28:15.599Z,32.30
2018-04-23T15:30:43.895Z,32.40
2018-04-23T15:33:12.244Z,32.90
2018-04-23T15:35:40.570Z,33.10
2018-04-23T15:38:09.014Z,33.50
2018-04-23T15:40:37.893Z,34.20
2018-04-23T15:43:06.226Z,33.60
2018-04-23T15:45:34.680Z,33.40
2018-04-23T15:48:03.325Z,33.40
2018-04-23T15:50:32.550Z,34.00
2018-04-23T15:53:00.901Z,33.90
2018-04-23T15:55:30.076Z,31.50
2018-04-23T15:57:58.541Z,31.50
2018-04-23T16:00:26.888Z,30.20
2018-04-23T16:02:55.368Z,30.10
2018-04-23T16:05:23.726Z,29.50
2018-04-23T16:07:52.963Z,28.90
2018-04-23T16:10:21.640Z,28.90
2018-04-23T16:12:50.264Z,29.50
2018-04-23T16:15:18.571Z,29.70
2018-04-23T16:17:47.850Z,30.00
2018-04-23T16:20:16.267Z,30.00
2018-04-23T16:22:44.643Z,30.00
2018-04-23T16:25:12.992Z,29.60
2018-04-23T16:27:42.161Z,29.10
2018-04-23T16:30:10.612Z,29.20
2018-04-23T16:32:39.205Z,29.10
2018-04-23T16:35:07.747Z,29.20
2018-04-23T16:37:36.171Z,28.70
2018-04-23T16:40:04.546Z,29.60
2018-04-23T16:42:34.203Z,30.10
2018-04-23T16:45:04.874Z,30.70
2018-04-23T16:47:33.172Z,30.70
2018-04-23T16:50:01.722Z,30.70
2018-04-23T16:52:30.172Z,30.20
2018-04-23T16:54:58.585Z,29.50
2018-04-23T16:57:26.963Z,29.30
2018-04-23T16:59:55.693Z,29.10
2018-04-23T17:02:25.010Z,29.40
2018-04-23T17:04:53.410Z,29.40
2018-04-23T17:07:22.891Z,30.10
2018-04-23T17:09:51.324Z,30.10
2018-04-23T17:12:19.746Z,30.00
2018-04-23T17:14:48.354Z,29.90
2018-04-23T17:17:16.798Z,29.70
2018-04-23T17:19:46.040Z,29.70
2018-04-23T17:22:14.481Z,29.60
2018-04-23T17:24:42.882Z,30.00
2018-04-23T17:27:11.457Z,30.10
2018-04-23T17:29:39.933Z,30.30
2018-04-23T17:32:09.040Z,30.70
2018-04-23T17:34:37.522Z,30.60
2018-04-23T17:37:05.924Z,31.30
2018-04-23T17:39:34.255Z,32.10
2018-04-23T17:42:02.615Z,32.10
2018-04-23T17:44:31.732Z,33.60
2018-04-23T17:47:00.209Z,33.60
2018-04-23T17:49:29.197Z,33.80
2018-04-23T17:51:57.564Z,34.50
2018-04-23T17:54:26.050Z,35.00
2018-04-23T17:56:54.495Z,35.30
2018-04-23T17:59:22.857Z,35.50
2018-04-23T18:01:51.284Z,35.90
2018-04-23T18:04:19.708Z,36.60
2018-04-23T18:06:48.233Z,37.70
2018-04-23T18:09:16.657Z,38.10
2018-04-23T18:11:45.198Z,38.30
2018-04-23T18:14:13.505Z,38.80
2018-04-23T18:16:41.869Z,39.40
2018-04-23T18:19:10.204Z,39.30
2018-04-23T18:21:39.338Z,40.10
2018-04-23T18:24:08.327Z,40.10
2018-04-23T18:26:36.717Z,39.70
2018-04-23T18:29:05.050Z,40.30
2018-04-23T18:31:34.151Z,40.50
2018-04-23T18:34:03.367Z,40.30
2018-04-23T18:36:31.795Z,40.30
2018-04-23T18:39:00.213Z,40.50
2018-04-23T18:41:28.804Z,40.40
2018-04-23T18:43:57.323Z,41.00
2018-04-23T18:46:25.755Z,41.60
2018-04-23T18:48:54.095Z,50.70
2018-04-23T18:51:22.803Z,47.60
2018-04-23T18:53:52.044Z,40.80
2018-04-23T18:56:21.507Z,40.70
2018-04-23T18:58:50.658Z,40.50
2018-04-23T19:01:20.101Z,40.60
2018-04-23T19:03:48.809Z,39.50
2018-04-23T19:06:17.374Z,40.50
2018-04-23T19:08:47.021Z,39.90
2018-04-23T19:11:15.571Z,40.60
2018-04-23T19:13:44.170Z,40.10
2018-04-23T19:16:12.585Z,38.80
2018-04-23T19:18:41.283Z,38.40
2018-04-23T19:21:10.498Z,40.10
2018-04-23T19:23:38.912Z,40.10
2018-04-23T19:26:07.303Z,39.90
2018-04-23T19:28:35.747Z,39.40
2018-04-23T19:31:04.106Z,38.60
2018-04-23T19:33:33.373Z,38.00
2018-04-23T19:36:01.887Z,38.00
2018-04-23T19:38:30.379Z,38.40
2018-04-23T19:40:58.948Z,38.30
2018-04-23T19:43:27.305Z,38.90
2018-04-23T19:45:55.724Z,39.60
2018-04-23T19:48:24.047Z,40.30
2018-04-23T19:50:53.227Z,41.10
2018-04-23T19:53:21.614Z,40.70
2018-04-23T19:55:50.040Z,41.40
2018-04-23T19:58:18.805Z,41.40
2018-04-23T20:00:48.002Z,41.30
2018-04-23T20:03:16.405Z,41.30
2018-04-23T20:05:44.757Z,41.60
2018-04-23T20:08:13.920Z,42.10
2018-04-23T20:10:42.263Z,42.10
2018-04-23T20:13:10.663Z,42.90
2018-04-23T20:15:39.140Z,43.20
2018-04-23T20:18:07.632Z,43.60
2018-04-23T20:20:36.018Z,44.20
2018-04-23T20:23:04.557Z,44.70
2018-04-23T20:25:32.802Z,44.30
2018-04-23T20:28:03.042Z,45.40
2018-04-23T20:30:31.463Z,45.40
2018-04-23T20:32:59.788Z,45.30
2018-04-23T20:35:28.319Z,45.40
2018-04-23T20:37:57.727Z,46.30
2018-04-23T20:40:26.049Z,46.30
2018-04-23T20:42:54.334Z,46.60
2018-04-23T20:45:22.685Z,46.00
2018-04-23T20:47:51.828Z,47.00
2018-04-23T20:50:20.154Z,47.00
2018-04-23T20:52:48.590Z,47.50
2018-04-23T20:55:16.997Z,47.20
2018-04-23T20:57:45.406Z,47.10
2018-04-23T21:00:13.764Z,47.00
2018-04-23T21:02:42.134Z,46.90
2018-04-23T21:05:11.232Z,47.60
2018-04-23T21:07:39.591Z,47.60
2018-04-23T21:10:07.889Z,47.90
2018-04-23T21:12:36.383Z,48.70
2018-04-23T21:15:05.494Z,49.10
2018-04-23T21:17:34.628Z,48.90
2018-04-23T21:20:02.999Z,48.90
2018-04-23T21:22:31.401Z,48.60
2018-04-23T21:24:59.718Z,48.60
2018-04-23T21:27:28.787Z,48.80
2018-04-23T21:29:58.687Z,49.20
2018-04-23T21:32:27.014Z,49.20
2018-04-23T21:34:55.421Z,49.20
2018-04-23T21:37:23.758Z,49.40
2018-04-23T21:39:52.965Z,50.60
2018-04-23T21:42:21.270Z,50.60
2018-04-23T21:44:49.727Z,50.20
2018-04-23T21:47:18.941Z,49.40
2018-04-23T21:49:47.551Z,49.40
2018-04-23T21:52:15.969Z,49.80
2018-04-23T21:54:45.015Z,51.10
2018-04-23T21:57:13.410Z,51.00
2018-04-23T21:59:41.730Z,50.50
2018-04-23T22:02:11.983Z,49.90
2018-04-23T22:04:40.286Z,49.90
2018-04-23T22:07:08.827Z,52.60
2018-04-23T22:09:37.230Z,53.40
2018-04-23T22:12:05.617Z,57.10
2018-04-23T22:14:34.065Z,57.20
2018-04-23T22:17:03.141Z,55.00
2018-04-23T22:19:32.353Z,54.70
2018-04-23T22:22:00.653Z,54.70
2018-04-23T22:24:29.010Z,53.50
2018-04-23T22:26:57.305Z,54.30
2018-04-23T22:29:25.674Z,53.90
2018-04-23T22:31:53.981Z,52.80
2018-04-23T22:34:22.309Z,52.60
2018-04-23T22:36:50.781Z,53.00
2018-04-23T22:39:20.201Z,53.40
2018-04-23T22:41:48.489Z,53.30
2018-04-23T22:44:16.866Z,52.10
2018-04-23T22:46:45.230Z,54.60
2018-04-23T22:49:14.490Z,55.50
2018-04-23T22:51:43.626Z,55.90
2018-04-23T22:54:11.929Z,55.90
2018-04-23T22:56:40.268Z,55.50
2018-04-23T22:59:09.441Z,54.80
2018-04-23T23:01:37.755Z,54.80
2018-04-23T23:04:06.119Z,54.70
2018-04-23T23:06:35.229Z,53.90
2018-04-23T23:09:03.583Z,53.90
2018-04-23T23:11:32.033Z,53.80
2018-04-23T23:14:00.534Z,53.50
2018-04-23T23:16:28.856Z,53.20
2018-04-23T23:18:57.167Z,53.70
2018-04-23T23:21:25.497Z,54.70
2018-04-23T23:23:53.840Z,54.20
2018-04-23T23:26:22.181Z,53.90
2018-04-23T23:28:50.625Z,54.00
2018-04-23T23:31:19.665Z,54.50
2018-04-23T23:33:49.209Z,54.20
2018-04-23T23:36:17.669Z,54.20
2018-04-23T23:38:46.009Z,54.20
2018-04-23T23:41:14.335Z,54.60
2018-04-23T23:43:42.628Z,54.70
2018-04-23T23:46:11.708Z,54.50
2018-04-23T23:48:40.030Z,54.60
2018-04-23T23:51:08.470Z,55.20
2018-04-23T23:53:36.765Z,55.80
2018-04-23T23:56:05.887Z,54.70
2018-04-23T23:58:34.252Z,54.60
